Loading...
Ted Stevens Anchorage International Airport

PANC

Code AITA: ANC

Anchorage, Alaska, United States

-11.1°

Rosée: -19.4

Vitesse du vent

6 kt

Direction: 10° /

Altimètre

30.08 Hg

QNH : 1019

PANC 030053Z 01006KT 10SM FEW065 SCT080 BKN230 M11/M19 A3008 RMK AO2 SLP191 T11111194


Ted Stevens Anchorage International Airport

Élévation

39.0 mètres

Ville

Anchorage

Localisation

Alaska

Pays

United States

Nouvelle recherche